sensor_id;sensor_type;location;lat;lon;timestamp;P1;durP1;ratioP1;P2;durP2;ratioP2
46355;SDS011;32066;49.474;11.106;2024-03-02T00:01:56;32.88;;;21.05;;
46355;SDS011;32066;49.474;11.106;2024-03-02T00:04:27;35.97;;;21.10;;
46355;SDS011;32066;49.474;11.106;2024-03-02T00:06:56;36.63;;;21.98;;
46355;SDS011;32066;49.474;11.106;2024-03-02T00:09:24;35.78;;;21.55;;
46355;SDS011;32066;49.474;11.106;2024-03-02T00:11:53;33.53;;;21.80;;
46355;SDS011;32066;49.474;11.106;2024-03-02T00:14:22;31.50;;;20.67;;
46355;SDS011;32066;49.474;11.106;2024-03-02T00:16:52;32.75;;;21.38;;
46355;SDS011;32066;49.474;11.106;2024-03-02T00:19:22;34.40;;;22.20;;
46355;SDS011;32066;49.474;11.106;2024-03-02T00:21:54;34.10;;;22.50;;
46355;SDS011;32066;49.474;11.106;2024-03-02T00:24:24;38.67;;;21.48;;
46355;SDS011;32066;49.474;11.106;2024-03-02T00:26:59;31.77;;;20.13;;
46355;SDS011;32066;49.474;11.106;2024-03-02T00:29:29;33.83;;;20.10;;
46355;SDS011;32066;49.474;11.106;2024-03-02T00:31:57;29.30;;;19.67;;
46355;SDS011;32066;49.474;11.106;2024-03-02T00:34:26;33.00;;;21.33;;
46355;SDS011;32066;49.474;11.106;2024-03-02T00:36:59;31.55;;;20.45;;
46355;SDS011;32066;49.474;11.106;2024-03-02T00:39:27;33.40;;;21.40;;
46355;SDS011;32066;49.474;11.106;2024-03-02T00:41:57;31.20;;;20.73;;
46355;SDS011;32066;49.474;11.106;2024-03-02T00:44:26;33.03;;;20.50;;
46355;SDS011;32066;49.474;11.106;2024-03-02T00:46:59;33.55;;;20.05;;
46355;SDS011;32066;49.474;11.106;2024-03-02T00:49:28;32.45;;;19.98;;
46355;SDS011;32066;49.474;11.106;2024-03-02T00:52:02;35.35;;;20.83;;
46355;SDS011;32066;49.474;11.106;2024-03-02T00:54:30;33.80;;;20.83;;
46355;SDS011;32066;49.474;11.106;2024-03-02T00:56:59;30.23;;;19.40;;
46355;SDS011;32066;49.474;11.106;2024-03-02T00:59:28;31.00;;;19.23;;
46355;SDS011;32066;49.474;11.106;2024-03-02T01:01:57;30.38;;;19.75;;
46355;SDS011;32066;49.474;11.106;2024-03-02T01:04:26;32.03;;;20.08;;
46355;SDS011;32066;49.474;11.106;2024-03-02T01:06:55;32.28;;;19.33;;
46355;SDS011;32066;49.474;11.106;2024-03-02T01:09:26;33.08;;;20.05;;
46355;SDS011;32066;49.474;11.106;2024-03-02T01:11:55;33.20;;;20.83;;
46355;SDS011;32066;49.474;11.106;2024-03-02T01:14:23;35.33;;;20.50;;
46355;SDS011;32066;49.474;11.106;2024-03-02T01:16:52;33.35;;;20.70;;
46355;SDS011;32066;49.474;11.106;2024-03-02T01:19:21;32.92;;;20.13;;
46355;SDS011;32066;49.474;11.106;2024-03-02T01:21:50;32.50;;;20.35;;
46355;SDS011;32066;49.474;11.106;2024-03-02T01:24:18;31.92;;;20.88;;
46355;SDS011;32066;49.474;11.106;2024-03-02T01:26:49;32.20;;;20.40;;
46355;SDS011;32066;49.474;11.106;2024-03-02T01:29:18;31.90;;;20.92;;
46355;SDS011;32066;49.474;11.106;2024-03-02T01:31:47;34.55;;;21.23;;
46355;SDS011;32066;49.474;11.106;2024-03-02T01:34:16;28.40;;;19.40;;
46355;SDS011;32066;49.474;11.106;2024-03-02T01:36:45;34.33;;;21.25;;
46355;SDS011;32066;49.474;11.106;2024-03-02T01:39:14;31.27;;;20.30;;
46355;SDS011;32066;49.474;11.106;2024-03-02T01:41:40;35.03;;;21.13;;
46355;SDS011;32066;49.474;11.106;2024-03-02T01:44:11;31.00;;;20.63;;
46355;SDS011;32066;49.474;11.106;2024-03-02T01:46:40;33.83;;;21.70;;
46355;SDS011;32066;49.474;11.106;2024-03-02T01:49:08;36.90;;;22.10;;
46355;SDS011;32066;49.474;11.106;2024-03-02T01:51:37;35.42;;;21.42;;
46355;SDS011;32066;49.474;11.106;2024-03-02T01:54:06;32.78;;;20.67;;
46355;SDS011;32066;49.474;11.106;2024-03-02T01:56:35;32.20;;;20.63;;
46355;SDS011;32066;49.474;11.106;2024-03-02T01:59:05;30.85;;;20.60;;
46355;SDS011;32066;49.474;11.106;2024-03-02T02:01:37;37.33;;;21.73;;
46355;SDS011;32066;49.474;11.106;2024-03-02T02:04:06;32.63;;;20.90;;
46355;SDS011;32066;49.474;11.106;2024-03-02T02:06:35;33.05;;;20.42;;
46355;SDS011;32066;49.474;11.106;2024-03-02T02:09:03;31.90;;;21.42;;
46355;SDS011;32066;49.474;11.106;2024-03-02T02:11:33;33.55;;;20.70;;
46355;SDS011;32066;49.474;11.106;2024-03-02T02:14:02;34.53;;;22.42;;
46355;SDS011;32066;49.474;11.106;2024-03-02T02:16:30;34.03;;;21.83;;
46355;SDS011;32066;49.474;11.106;2024-03-02T02:19:02;31.85;;;21.13;;
46355;SDS011;32066;49.474;11.106;2024-03-02T02:21:33;34.17;;;21.42;;
46355;SDS011;32066;49.474;11.106;2024-03-02T02:24:02;33.15;;;20.15;;
46355;SDS011;32066;49.474;11.106;2024-03-02T02:26:31;33.58;;;21.38;;
46355;SDS011;32066;49.474;11.106;2024-03-02T02:29:00;32.65;;;20.38;;
46355;SDS011;32066;49.474;11.106;2024-03-02T02:31:36;31.60;;;21.15;;
46355;SDS011;32066;49.474;11.106;2024-03-02T02:34:05;31.52;;;20.88;;
46355;SDS011;32066;49.474;11.106;2024-03-02T02:36:37;31.38;;;20.20;;
46355;SDS011;32066;49.474;11.106;2024-03-02T02:39:09;30.63;;;19.08;;
46355;SDS011;32066;49.474;11.106;2024-03-02T02:41:40;32.60;;;20.83;;
46355;SDS011;32066;49.474;11.106;2024-03-02T02:44:08;32.08;;;20.70;;
46355;SDS011;32066;49.474;11.106;2024-03-02T02:46:38;31.02;;;20.25;;
46355;SDS011;32066;49.474;11.106;2024-03-02T02:49:07;33.83;;;20.70;;
46355;SDS011;32066;49.474;11.106;2024-03-02T02:51:38;31.65;;;20.60;;
46355;SDS011;32066;49.474;11.106;2024-03-02T02:54:07;32.55;;;21.48;;
46355;SDS011;32066;49.474;11.106;2024-03-02T02:56:35;32.00;;;21.33;;
46355;SDS011;32066;49.474;11.106;2024-03-02T02:59:04;30.92;;;20.02;;
46355;SDS011;32066;49.474;11.106;2024-03-02T03:01:32;31.92;;;20.23;;
46355;SDS011;32066;49.474;11.106;2024-03-02T03:04:01;30.88;;;20.05;;
46355;SDS011;32066;49.474;11.106;2024-03-02T03:06:30;32.65;;;19.75;;
46355;SDS011;32066;49.474;11.106;2024-03-02T03:09:01;30.15;;;20.00;;
46355;SDS011;32066;49.474;11.106;2024-03-02T03:11:27;30.20;;;19.48;;
46355;SDS011;32066;49.474;11.106;2024-03-02T03:13:56;30.98;;;20.88;;
46355;SDS011;32066;49.474;11.106;2024-03-02T03:16:26;32.88;;;20.55;;
46355;SDS011;32066;49.474;11.106;2024-03-02T03:18:55;31.95;;;20.88;;
46355;SDS011;32066;49.474;11.106;2024-03-02T03:21:23;31.55;;;19.75;;
46355;SDS011;32066;49.474;11.106;2024-03-02T03:23:52;31.98;;;20.08;;
46355;SDS011;32066;49.474;11.106;2024-03-02T03:26:23;30.80;;;20.35;;
46355;SDS011;32066;49.474;11.106;2024-03-02T03:28:52;30.02;;;20.08;;
46355;SDS011;32066;49.474;11.106;2024-03-02T03:31:21;30.02;;;19.48;;
46355;SDS011;32066;49.474;11.106;2024-03-02T03:33:49;31.27;;;20.73;;
46355;SDS011;32066;49.474;11.106;2024-03-02T03:36:18;29.60;;;19.27;;
46355;SDS011;32066;49.474;11.106;2024-03-02T03:38:47;29.00;;;19.60;;
46355;SDS011;32066;49.474;11.106;2024-03-02T03:41:15;28.80;;;19.08;;
46355;SDS011;32066;49.474;11.106;2024-03-02T03:43:46;29.83;;;19.27;;
46355;SDS011;32066;49.474;11.106;2024-03-02T03:46:15;31.90;;;19.70;;
46355;SDS011;32066;49.474;11.106;2024-03-02T03:48:44;29.27;;;19.17;;
46355;SDS011;32066;49.474;11.106;2024-03-02T03:51:13;28.73;;;18.42;;
46355;SDS011;32066;49.474;11.106;2024-03-02T03:53:42;28.40;;;18.08;;
46355;SDS011;32066;49.474;11.106;2024-03-02T03:56:11;27.52;;;18.23;;
46355;SDS011;32066;49.474;11.106;2024-03-02T03:58:40;27.15;;;17.33;;
46355;SDS011;32066;49.474;11.106;2024-03-02T04:01:11;27.02;;;18.30;;
46355;SDS011;32066;49.474;11.106;2024-03-02T04:03:39;24.92;;;17.23;;
46355;SDS011;32066;49.474;11.106;2024-03-02T04:06:08;25.85;;;17.30;;
46355;SDS011;32066;49.474;11.106;2024-03-02T04:08:37;28.80;;;17.65;;
46355;SDS011;32066;49.474;11.106;2024-03-02T04:11:05;26.85;;;16.77;;
46355;SDS011;32066;49.474;11.106;2024-03-02T04:13:34;27.17;;;17.63;;
46355;SDS011;32066;49.474;11.106;2024-03-02T04:16:03;25.73;;;16.98;;
46355;SDS011;32066;49.474;11.106;2024-03-02T04:18:34;25.67;;;16.98;;
46355;SDS011;32066;49.474;11.106;2024-03-02T04:21:03;25.08;;;16.75;;
46355;SDS011;32066;49.474;11.106;2024-03-02T04:23:32;24.63;;;15.90;;
46355;SDS011;32066;49.474;11.106;2024-03-02T04:26:00;24.20;;;16.08;;
46355;SDS011;32066;49.474;11.106;2024-03-02T04:28:29;26.60;;;16.58;;
46355;SDS011;32066;49.474;11.106;2024-03-02T04:30:58;24.67;;;15.20;;
46355;SDS011;32066;49.474;11.106;2024-03-02T04:33:26;23.73;;;15.63;;
46355;SDS011;32066;49.474;11.106;2024-03-02T04:35:57;23.85;;;15.75;;
46355;SDS011;32066;49.474;11.106;2024-03-02T04:38:26;25.13;;;15.88;;
46355;SDS011;32066;49.474;11.106;2024-03-02T04:40:55;23.85;;;15.77;;
46355;SDS011;32066;49.474;11.106;2024-03-02T04:43:24;22.35;;;15.02;;
46355;SDS011;32066;49.474;11.106;2024-03-02T04:45:52;25.30;;;15.63;;
46355;SDS011;32066;49.474;11.106;2024-03-02T04:48:21;23.40;;;15.27;;
46355;SDS011;32066;49.474;11.106;2024-03-02T04:50:50;21.58;;;14.30;;
46355;SDS011;32066;49.474;11.106;2024-03-02T04:53:21;22.92;;;14.15;;
46355;SDS011;32066;49.474;11.106;2024-03-02T04:55:50;22.77;;;14.60;;
46355;SDS011;32066;49.474;11.106;2024-03-02T04:58:31;22.98;;;14.52;;
46355;SDS011;32066;49.474;11.106;2024-03-02T05:01:00;21.48;;;13.90;;
46355;SDS011;32066;49.474;11.106;2024-03-02T05:03:29;20.55;;;14.50;;
46355;SDS011;32066;49.474;11.106;2024-03-02T05:06:00;21.10;;;14.20;;
46355;SDS011;32066;49.474;11.106;2024-03-02T05:08:31;20.80;;;14.75;;
46355;SDS011;32066;49.474;11.106;2024-03-02T05:10:59;22.08;;;14.07;;
46355;SDS011;32066;49.474;11.106;2024-03-02T05:13:48;24.25;;;14.30;;
46355;SDS011;32066;49.474;11.106;2024-03-02T05:16:14;21.00;;;13.75;;
46355;SDS011;32066;49.474;11.106;2024-03-02T05:18:43;19.13;;;13.98;;
46355;SDS011;32066;49.474;11.106;2024-03-02T05:21:11;22.70;;;14.10;;
46355;SDS011;32066;49.474;11.106;2024-03-02T05:23:43;20.88;;;13.50;;
46355;SDS011;32066;49.474;11.106;2024-03-02T05:26:11;20.58;;;13.88;;
46355;SDS011;32066;49.474;11.106;2024-03-02T05:28:40;20.52;;;13.90;;
46355;SDS011;32066;49.474;11.106;2024-03-02T05:31:09;23.10;;;13.73;;
46355;SDS011;32066;49.474;11.106;2024-03-02T05:33:38;22.55;;;14.38;;
46355;SDS011;32066;49.474;11.106;2024-03-02T05:36:07;20.90;;;13.80;;
46355;SDS011;32066;49.474;11.106;2024-03-02T05:38:35;23.13;;;14.50;;
46355;SDS011;32066;49.474;11.106;2024-03-02T05:41:07;20.52;;;13.60;;
46355;SDS011;32066;49.474;11.106;2024-03-02T05:43:36;22.63;;;14.57;;
46355;SDS011;32066;49.474;11.106;2024-03-02T05:46:05;21.90;;;14.07;;
46355;SDS011;32066;49.474;11.106;2024-03-02T05:48:34;24.73;;;16.23;;
46355;SDS011;32066;49.474;11.106;2024-03-02T05:51:02;25.10;;;15.48;;
46355;SDS011;32066;49.474;11.106;2024-03-02T05:53:31;23.52;;;15.27;;
46355;SDS011;32066;49.474;11.106;2024-03-02T05:56:03;21.55;;;14.52;;
46355;SDS011;32066;49.474;11.106;2024-03-02T05:58:37;22.02;;;14.95;;
46355;SDS011;32066;49.474;11.106;2024-03-02T06:01:18;23.23;;;15.15;;
46355;SDS011;32066;49.474;11.106;2024-03-02T06:03:53;21.25;;;14.85;;
46355;SDS011;32066;49.474;11.106;2024-03-02T06:06:22;23.20;;;15.55;;
46355;SDS011;32066;49.474;11.106;2024-03-02T06:08:51;20.27;;;14.25;;
46355;SDS011;32066;49.474;11.106;2024-03-02T06:11:22;20.52;;;13.98;;
46355;SDS011;32066;49.474;11.106;2024-03-02T06:13:50;19.65;;;13.43;;
46355;SDS011;32066;49.474;11.106;2024-03-02T06:16:19;21.08;;;13.95;;
46355;SDS011;32066;49.474;11.106;2024-03-02T06:18:48;20.60;;;13.77;;
46355;SDS011;32066;49.474;11.106;2024-03-02T06:21:16;22.23;;;14.48;;
46355;SDS011;32066;49.474;11.106;2024-03-02T06:23:45;22.52;;;13.70;;
46355;SDS011;32066;49.474;11.106;2024-03-02T06:26:14;20.92;;;14.35;;
46355;SDS011;32066;49.474;11.106;2024-03-02T06:28:46;19.52;;;13.63;;
46355;SDS011;32066;49.474;11.106;2024-03-02T06:31:14;20.40;;;14.20;;
46355;SDS011;32066;49.474;11.106;2024-03-02T06:33:43;21.67;;;14.57;;
46355;SDS011;32066;49.474;11.106;2024-03-02T06:36:12;22.77;;;15.27;;
46355;SDS011;32066;49.474;11.106;2024-03-02T06:38:42;21.30;;;14.75;;
46355;SDS011;32066;49.474;11.106;2024-03-02T06:41:11;20.83;;;13.88;;
46355;SDS011;32066;49.474;11.106;2024-03-02T06:43:39;19.90;;;13.68;;
46355;SDS011;32066;49.474;11.106;2024-03-02T06:46:13;22.73;;;14.60;;
46355;SDS011;32066;49.474;11.106;2024-03-02T06:48:42;20.48;;;13.95;;
46355;SDS011;32066;49.474;11.106;2024-03-02T06:51:11;21.05;;;13.98;;
46355;SDS011;32066;49.474;11.106;2024-03-02T06:53:41;20.73;;;13.88;;
46355;SDS011;32066;49.474;11.106;2024-03-02T06:56:09;22.02;;;14.52;;
46355;SDS011;32066;49.474;11.106;2024-03-02T06:58:38;22.35;;;14.68;;
46355;SDS011;32066;49.474;11.106;2024-03-02T07:01:08;24.45;;;15.88;;
46355;SDS011;32066;49.474;11.106;2024-03-02T07:03:39;22.92;;;15.10;;
46355;SDS011;32066;49.474;11.106;2024-03-02T07:06:09;23.48;;;15.85;;
46355;SDS011;32066;49.474;11.106;2024-03-02T07:08:37;23.58;;;15.60;;
46355;SDS011;32066;49.474;11.106;2024-03-02T07:11:06;22.08;;;14.80;;
46355;SDS011;32066;49.474;11.106;2024-03-02T07:13:35;24.10;;;17.05;;
46355;SDS011;32066;49.474;11.106;2024-03-02T07:16:04;26.35;;;17.73;;
46355;SDS011;32066;49.474;11.106;2024-03-02T07:18:48;23.63;;;16.40;;
46355;SDS011;32066;49.474;11.106;2024-03-02T07:21:17;25.75;;;16.30;;
46355;SDS011;32066;49.474;11.106;2024-03-02T07:23:47;23.08;;;15.93;;
46355;SDS011;32066;49.474;11.106;2024-03-02T07:26:16;25.92;;;15.68;;
46355;SDS011;32066;49.474;11.106;2024-03-02T07:28:45;23.77;;;16.25;;
46355;SDS011;32066;49.474;11.106;2024-03-02T07:31:15;22.52;;;15.45;;
46355;SDS011;32066;49.474;11.106;2024-03-02T07:33:44;22.15;;;14.40;;
46355;SDS011;32066;49.474;11.106;2024-03-02T07:36:15;23.27;;;15.07;;
46355;SDS011;32066;49.474;11.106;2024-03-02T07:38:44;21.88;;;14.32;;
46355;SDS011;32066;49.474;11.106;2024-03-02T07:41:15;22.42;;;14.32;;
46355;SDS011;32066;49.474;11.106;2024-03-02T07:43:44;20.02;;;14.13;;
46355;SDS011;32066;49.474;11.106;2024-03-02T07:46:13;20.55;;;13.93;;
46355;SDS011;32066;49.474;11.106;2024-03-02T07:48:42;19.75;;;13.00;;
46355;SDS011;32066;49.474;11.106;2024-03-02T07:51:11;21.17;;;13.95;;
46355;SDS011;32066;49.474;11.106;2024-03-02T07:53:42;20.85;;;13.98;;
46355;SDS011;32066;49.474;11.106;2024-03-02T07:56:11;19.55;;;13.38;;
46355;SDS011;32066;49.474;11.106;2024-03-02T07:58:46;20.60;;;13.52;;
46355;SDS011;32066;49.474;11.106;2024-03-02T08:01:15;20.98;;;14.38;;
46355;SDS011;32066;49.474;11.106;2024-03-02T08:03:44;19.63;;;13.40;;
46355;SDS011;32066;49.474;11.106;2024-03-02T08:06:15;20.73;;;13.93;;
46355;SDS011;32066;49.474;11.106;2024-03-02T08:08:48;20.52;;;13.40;;
46355;SDS011;32066;49.474;11.106;2024-03-02T08:11:17;22.48;;;14.10;;
46355;SDS011;32066;49.474;11.106;2024-03-02T08:13:46;19.42;;;13.32;;
46355;SDS011;32066;49.474;11.106;2024-03-02T08:16:14;21.60;;;12.88;;
46355;SDS011;32066;49.474;11.106;2024-03-02T08:18:44;19.52;;;12.55;;
46355;SDS011;32066;49.474;11.106;2024-03-02T08:21:13;19.08;;;13.07;;
46355;SDS011;32066;49.474;11.106;2024-03-02T08:23:42;22.85;;;14.63;;
46355;SDS011;32066;49.474;11.106;2024-03-02T08:26:14;24.60;;;15.73;;
46355;SDS011;32066;49.474;11.106;2024-03-02T08:28:43;22.77;;;14.75;;
46355;SDS011;32066;49.474;11.106;2024-03-02T08:31:12;22.65;;;14.75;;
46355;SDS011;32066;49.474;11.106;2024-03-02T08:33:40;19.40;;;13.02;;
46355;SDS011;32066;49.474;11.106;2024-03-02T08:36:09;20.58;;;13.35;;
46355;SDS011;32066;49.474;11.106;2024-03-02T08:38:38;18.40;;;12.55;;
46355;SDS011;32066;49.474;11.106;2024-03-02T08:41:06;20.45;;;12.70;;
46355;SDS011;32066;49.474;11.106;2024-03-02T08:43:40;19.98;;;12.27;;
46355;SDS011;32066;49.474;11.106;2024-03-02T08:46:10;17.20;;;10.85;;
46355;SDS011;32066;49.474;11.106;2024-03-02T08:48:38;17.25;;;11.40;;
46355;SDS011;32066;49.474;11.106;2024-03-02T08:51:07;17.23;;;11.60;;
46355;SDS011;32066;49.474;11.106;2024-03-02T08:53:36;15.05;;;10.00;;
46355;SDS011;32066;49.474;11.106;2024-03-02T08:56:05;15.73;;;10.93;;
46355;SDS011;32066;49.474;11.106;2024-03-02T08:58:34;14.73;;;9.63;;
46355;SDS011;32066;49.474;11.106;2024-03-02T09:01:05;14.50;;;10.38;;
46355;SDS011;32066;49.474;11.106;2024-03-02T09:03:34;15.32;;;10.77;;
46355;SDS011;32066;49.474;11.106;2024-03-02T09:06:03;14.38;;;10.13;;
46355;SDS011;32066;49.474;11.106;2024-03-02T09:08:32;14.15;;;9.48;;
46355;SDS011;32066;49.474;11.106;2024-03-02T09:11:01;13.75;;;9.20;;
46355;SDS011;32066;49.474;11.106;2024-03-02T09:13:30;13.98;;;9.15;;
46355;SDS011;32066;49.474;11.106;2024-03-02T09:15:59;12.65;;;8.63;;
46355;SDS011;32066;49.474;11.106;2024-03-02T09:18:32;13.10;;;8.82;;
46355;SDS011;32066;49.474;11.106;2024-03-02T09:21:01;12.18;;;8.35;;
46355;SDS011;32066;49.474;11.106;2024-03-02T09:23:30;12.38;;;8.32;;
46355;SDS011;32066;49.474;11.106;2024-03-02T09:25:59;12.40;;;8.05;;
46355;SDS011;32066;49.474;11.106;2024-03-02T09:28:28;11.98;;;8.20;;
46355;SDS011;32066;49.474;11.106;2024-03-02T09:30:57;12.70;;;8.18;;
46355;SDS011;32066;49.474;11.106;2024-03-02T09:33:26;13.18;;;8.07;;
46355;SDS011;32066;49.474;11.106;2024-03-02T09:35:57;11.23;;;7.90;;
46355;SDS011;32066;49.474;11.106;2024-03-02T09:38:25;10.38;;;7.47;;
46355;SDS011;32066;49.474;11.106;2024-03-02T09:40:54;11.25;;;7.72;;
46355;SDS011;32066;49.474;11.106;2024-03-02T09:43:23;10.18;;;6.93;;
46355;SDS011;32066;49.474;11.106;2024-03-02T09:45:52;10.25;;;7.40;;
46355;SDS011;32066;49.474;11.106;2024-03-02T09:48:21;11.38;;;7.47;;
46355;SDS011;32066;49.474;11.106;2024-03-02T09:50:49;10.65;;;6.93;;
46355;SDS011;32066;49.474;11.106;2024-03-02T09:53:21;11.35;;;7.55;;
46355;SDS011;32066;49.474;11.106;2024-03-02T09:55:51;10.85;;;7.13;;
46355;SDS011;32066;49.474;11.106;2024-03-02T09:58:20;11.38;;;7.10;;
46355;SDS011;32066;49.474;11.106;2024-03-02T10:00:49;11.40;;;7.13;;
46355;SDS011;32066;49.474;11.106;2024-03-02T10:03:18;10.70;;;7.13;;
46355;SDS011;32066;49.474;11.106;2024-03-02T10:05:47;10.02;;;6.82;;
46355;SDS011;32066;49.474;11.106;2024-03-02T10:08:17;9.88;;;6.95;;
46355;SDS011;32066;49.474;11.106;2024-03-02T10:10:48;11.30;;;7.35;;
46355;SDS011;32066;49.474;11.106;2024-03-02T10:13:16;10.57;;;7.43;;
46355;SDS011;32066;49.474;11.106;2024-03-02T10:15:45;10.23;;;6.97;;
46355;SDS011;32066;49.474;11.106;2024-03-02T10:18:13;9.77;;;7.10;;
46355;SDS011;32066;49.474;11.106;2024-03-02T10:20:54;10.32;;;7.22;;
46355;SDS011;32066;49.474;11.106;2024-03-02T10:23:23;9.95;;;6.60;;
46355;SDS011;32066;49.474;11.106;2024-03-02T10:25:54;10.25;;;7.03;;
46355;SDS011;32066;49.474;11.106;2024-03-02T10:28:22;11.00;;;7.03;;
46355;SDS011;32066;49.474;11.106;2024-03-02T10:30:53;11.13;;;7.47;;
46355;SDS011;32066;49.474;11.106;2024-03-02T10:33:22;11.93;;;8.55;;
46355;SDS011;32066;49.474;11.106;2024-03-02T10:35:52;12.57;;;8.00;;
46355;SDS011;32066;49.474;11.106;2024-03-02T10:38:21;12.73;;;8.02;;
46355;SDS011;32066;49.474;11.106;2024-03-02T10:40:50;11.23;;;7.72;;
46355;SDS011;32066;49.474;11.106;2024-03-02T10:43:23;14.52;;;8.10;;
46355;SDS011;32066;49.474;11.106;2024-03-02T10:45:52;10.82;;;7.68;;
46355;SDS011;32066;49.474;11.106;2024-03-02T10:48:22;12.65;;;8.20;;
46355;SDS011;32066;49.474;11.106;2024-03-02T10:50:52;11.93;;;8.30;;
46355;SDS011;32066;49.474;11.106;2024-03-02T10:53:22;12.38;;;8.85;;
46355;SDS011;32066;49.474;11.106;2024-03-02T10:55:51;11.40;;;8.07;;
46355;SDS011;32066;49.474;11.106;2024-03-02T10:58:31;12.65;;;9.15;;
46355;SDS011;32066;49.474;11.106;2024-03-02T11:01:01;11.45;;;8.50;;
46355;SDS011;32066;49.474;11.106;2024-03-02T11:03:31;11.50;;;8.15;;
46355;SDS011;32066;49.474;11.106;2024-03-02T11:06:04;13.88;;;8.80;;
46355;SDS011;32066;49.474;11.106;2024-03-02T11:08:36;11.27;;;8.63;;
46355;SDS011;32066;49.474;11.106;2024-03-02T11:11:10;12.27;;;8.95;;
46355;SDS011;32066;49.474;11.106;2024-03-02T11:13:49;16.23;;;9.90;;
46355;SDS011;32066;49.474;11.106;2024-03-02T11:16:23;12.60;;;9.20;;
46355;SDS011;32066;49.474;11.106;2024-03-02T11:19:03;12.23;;;9.45;;
46355;SDS011;32066;49.474;11.106;2024-03-02T11:21:34;13.10;;;9.25;;
46355;SDS011;32066;49.474;11.106;2024-03-02T11:26:58;11.25;;;8.43;;
46355;SDS011;32066;49.474;11.106;2024-03-02T11:32:14;12.02;;;9.05;;
46355;SDS011;32066;49.474;11.106;2024-03-02T11:34:46;11.23;;;8.23;;
46355;SDS011;32066;49.474;11.106;2024-03-02T11:37:16;11.80;;;8.35;;
46355;SDS011;32066;49.474;11.106;2024-03-02T11:39:46;10.57;;;7.85;;
46355;SDS011;32066;49.474;11.106;2024-03-02T11:42:17;10.98;;;8.10;;
46355;SDS011;32066;49.474;11.106;2024-03-02T11:44:48;9.80;;;7.03;;
46355;SDS011;32066;49.474;11.106;2024-03-02T11:47:17;9.48;;;7.00;;
46355;SDS011;32066;49.474;11.106;2024-03-02T11:49:46;10.82;;;7.47;;
46355;SDS011;32066;49.474;11.106;2024-03-02T11:52:17;10.25;;;7.30;;
46355;SDS011;32066;49.474;11.106;2024-03-02T11:54:46;10.73;;;7.50;;
46355;SDS011;32066;49.474;11.106;2024-03-02T11:57:17;10.52;;;7.15;;
46355;SDS011;32066;49.474;11.106;2024-03-02T11:59:50;9.80;;;6.32;;
46355;SDS011;32066;49.474;11.106;2024-03-02T12:02:19;16.90;;;11.60;;
46355;SDS011;32066;49.474;11.106;2024-03-02T12:04:49;18.90;;;12.50;;
46355;SDS011;32066;49.474;11.106;2024-03-02T12:07:18;20.83;;;13.80;;
46355;SDS011;32066;49.474;11.106;2024-03-02T12:09:49;20.35;;;13.52;;
46355;SDS011;32066;49.474;11.106;2024-03-02T12:12:26;20.10;;;13.98;;
46355;SDS011;32066;49.474;11.106;2024-03-02T12:14:58;25.13;;;15.90;;
46355;SDS011;32066;49.474;11.106;2024-03-02T12:17:26;24.33;;;15.93;;
46355;SDS011;32066;49.474;11.106;2024-03-02T12:19:55;22.00;;;15.63;;
46355;SDS011;32066;49.474;11.106;2024-03-02T12:22:24;24.10;;;15.48;;
46355;SDS011;32066;49.474;11.106;2024-03-02T12:24:53;22.67;;;15.45;;
46355;SDS011;32066;49.474;11.106;2024-03-02T12:27:22;22.67;;;15.90;;
46355;SDS011;32066;49.474;11.106;2024-03-02T12:29:50;26.35;;;16.30;;
46355;SDS011;32066;49.474;11.106;2024-03-02T12:32:22;26.35;;;16.65;;
46355;SDS011;32066;49.474;11.106;2024-03-02T12:34:52;24.15;;;16.13;;
46355;SDS011;32066;49.474;11.106;2024-03-02T12:37:21;23.95;;;16.02;;
46355;SDS011;32066;49.474;11.106;2024-03-02T12:39:49;28.45;;;17.55;;
46355;SDS011;32066;49.474;11.106;2024-03-02T12:42:18;24.80;;;16.60;;
46355;SDS011;32066;49.474;11.106;2024-03-02T12:44:47;27.20;;;17.77;;
46355;SDS011;32066;49.474;11.106;2024-03-02T12:47:16;28.52;;;19.00;;
46355;SDS011;32066;49.474;11.106;2024-03-02T12:49:47;27.08;;;16.77;;
46355;SDS011;32066;49.474;11.106;2024-03-02T12:52:17;27.55;;;18.52;;
46355;SDS011;32066;49.474;11.106;2024-03-02T12:54:46;26.27;;;17.10;;
46355;SDS011;32066;49.474;11.106;2024-03-02T12:57:16;25.67;;;16.83;;
46355;SDS011;32066;49.474;11.106;2024-03-02T12:59:45;25.30;;;17.05;;
46355;SDS011;32066;49.474;11.106;2024-03-02T13:02:16;24.67;;;16.67;;
46355;SDS011;32066;49.474;11.106;2024-03-02T13:04:54;26.10;;;17.30;;
46355;SDS011;32066;49.474;11.106;2024-03-02T13:07:23;26.85;;;17.90;;
46355;SDS011;32066;49.474;11.106;2024-03-02T13:09:52;28.13;;;16.77;;
46355;SDS011;32066;49.474;11.106;2024-03-02T13:12:23;25.13;;;16.83;;
46355;SDS011;32066;49.474;11.106;2024-03-02T13:14:52;25.98;;;15.95;;
46355;SDS011;32066;49.474;11.106;2024-03-02T13:17:21;23.85;;;14.68;;
46355;SDS011;32066;49.474;11.106;2024-03-02T13:19:51;24.40;;;15.30;;
46355;SDS011;32066;49.474;11.106;2024-03-02T13:22:23;23.58;;;13.68;;
46355;SDS011;32066;49.474;11.106;2024-03-02T13:24:52;19.50;;;12.88;;
46355;SDS011;32066;49.474;11.106;2024-03-02T13:27:22;18.45;;;12.25;;
46355;SDS011;32066;49.474;11.106;2024-03-02T13:29:50;17.92;;;11.90;;
46355;SDS011;32066;49.474;11.106;2024-03-02T13:32:19;19.05;;;12.05;;
46355;SDS011;32066;49.474;11.106;2024-03-02T13:34:49;19.15;;;12.35;;
46355;SDS011;32066;49.474;11.106;2024-03-02T13:37:20;19.73;;;11.48;;
46355;SDS011;32066;49.474;11.106;2024-03-02T13:39:49;17.60;;;11.05;;
46355;SDS011;32066;49.474;11.106;2024-03-02T13:42:18;18.95;;;12.25;;
46355;SDS011;32066;49.474;11.106;2024-03-02T13:44:46;20.77;;;12.52;;
46355;SDS011;32066;49.474;11.106;2024-03-02T13:47:16;18.65;;;12.27;;
46355;SDS011;32066;49.474;11.106;2024-03-02T13:49:46;18.33;;;12.00;;
46355;SDS011;32066;49.474;11.106;2024-03-02T13:52:15;18.55;;;11.05;;
46355;SDS011;32066;49.474;11.106;2024-03-02T13:54:48;20.55;;;13.02;;
46355;SDS011;32066;49.474;11.106;2024-03-02T13:57:17;17.75;;;11.90;;
46355;SDS011;32066;49.474;11.106;2024-03-02T13:59:46;14.43;;;9.57;;
46355;SDS011;32066;49.474;11.106;2024-03-02T14:02:15;15.20;;;10.00;;
46355;SDS011;32066;49.474;11.106;2024-03-02T14:04:44;15.70;;;10.15;;
46355;SDS011;32066;49.474;11.106;2024-03-02T14:07:13;15.90;;;10.20;;
46355;SDS011;32066;49.474;11.106;2024-03-02T14:09:41;19.35;;;11.38;;
46355;SDS011;32066;49.474;11.106;2024-03-02T14:12:13;16.85;;;10.30;;
46355;SDS011;32066;49.474;11.106;2024-03-02T14:14:41;19.95;;;12.85;;
46355;SDS011;32066;49.474;11.106;2024-03-02T14:17:10;21.92;;;13.43;;
46355;SDS011;32066;49.474;11.106;2024-03-02T14:19:40;20.27;;;13.60;;
46355;SDS011;32066;49.474;11.106;2024-03-02T14:22:09;22.10;;;13.65;;
46355;SDS011;32066;49.474;11.106;2024-03-02T14:24:38;21.55;;;13.82;;
46355;SDS011;32066;49.474;11.106;2024-03-02T14:27:08;24.80;;;15.05;;
46355;SDS011;32066;49.474;11.106;2024-03-02T14:29:42;24.73;;;15.27;;
46355;SDS011;32066;49.474;11.106;2024-03-02T14:32:11;24.08;;;14.35;;